Jermyn, Texas
Current Conditions -  °F | °C
As of 5:50 PM on Monday 20 Oct 2014 (Local Time) from KRPH Reporting Station
Overcast Overcast  
Wind Chill: 82°   Ceiling: 7000
Heat Index: 82°   Visibility: 10mi
Dew Point: 58°   Wind: 5mph
Humidity: 43%   Direction: 50°NE
Pressure: 29.99"   Gusts: NA
Location:  33.26°N, 98.39°W
Report Text: KRPH 202250Z AUTO 05004KT 10SM SCT060 OVC070 28/15 A2999 RMK AO2 T02800145
Loading
Personal Weather Stations






























Interactive Weather Map
Tropical Storm Tracking
New forecast layout! Learn more

10-Day Weather Forecast

Advertisements
Track Severe Weather on mobile